Impacts TAF Board
For situational awareness. Not to be used for flight planning purposes.
IDs:

KDHN - Dothan Rgnl, AL, US

Issued at 2320 UTC 02 Jul 2022
Updated at 0516 UTC 03 Jul 2022
Potential Impact None Slight Moderate High
Time0453Z 03/06Z 03/07Z 03/08Z 03/09Z 03/10Z 03/11Z 03/12Z 03/13Z 03/14Z 03/15Z 03/16Z 03/17Z 03/18Z>>
Type OBS PRVL PRVL PRVL PRVL PRVL PRVL PRVL PRVL PRVL PRVL PRVL PRVL PRVL
VIS 10 >6 >6 >6 >6 >6 >6 >6 >6 >6 >6 >6 >6 >6
CIG -- -- -- -- -- -- -- -- -- -- -- -- -- 40
Cover CLR SCT SCT SCT SCT SCT SCT SCT SCT SCT SCT SCT SCT BKN
FltCat VFR VFR VFR VFR VFR VFR VFR VFR VFR VFR VFR VFR VFR VFR
WX -- -- -- -- -- -- -- -- -- -- -- -- -- VCTS
WDir 200 260 260 260 260 260 260 260 260 260 270 270 270 260
WSpd 4 8 8 8 8 8 8 8 8 8 5 5 5 7
WGst -- -- -- -- -- -- -- -- -- -- -- -- -- --
WSHgt -- -- -- -- -- -- -- -- -- -- -- -- -- --
WSDir -- -- -- -- -- -- -- -- -- -- -- -- -- --
WSSpd -- -- -- -- -- -- -- -- -- -- -- -- -- --
Raw TAF
KDHN 022320Z 0300/0324 26008KT P6SM SCT200
  FM031500 27005KT P6SM SCT035
  FM031800 26007KT P6SM VCTS BKN040CB


Raw METAR
KDHN 030453Z AUTO 20004KT 10SM CLR 24/24 A3009 RMK AO2 SLP182 T02440244 403220239 TSNO
KDHN 030353Z AUTO 21004KT 10SM CLR 25/24 A3010 RMK AO2 RAE15 SLP188 P0000 T02500244 TSNO
KDHN 030253Z AUTO 24003KT 10SM -RA FEW110 26/24 A3011 RMK AO2 RAB53 SLP190 P0000 60000 T02560239 51015 TSNO

METAR Board
Radar Display
Forecast Discussion
For situational awareness. Not to be used for flight planning purposes.